Time,TemperatureF,DewpointF,PressureIn,WindDirection,WindDirectionDegrees,WindSpeedMPH,WindSpeedGustMPH,Humidity,HourlyPrecipIn,Conditions,Clouds,dailyrainin,SoftwareType,DateUTC
2013-07-27 00:08:00,55.4,51.0,30.03,NNE,23,0.0,0.0,84,0.00,,,0.00,weatherlink.com 1.10,2013-07-27 05:08:00,
2013-07-27 00:23:00,54.5,50.0,30.03,NNE,25,0.0,0.0,86,0.00,,,0.00,weatherlink.com 1.10,2013-07-27 05:23:00,
2013-07-27 00:38:00,53.9,50.0,30.03,NW,315,0.0,0.0,87,0.00,,,0.00,weatherlink.com 1.10,2013-07-27 05:38:00,
2013-07-27 00:53:00,53.2,50.0,30.03,NW,313,0.0,0.0,89,0.00,,,0.00,weatherlink.com 1.10,2013-07-27 05:53:00,
2013-07-27 01:08:00,52.7,50.0,30.03,NNW,335,0.0,0.0,90,0.00,,,0.00,weatherlink.com 1.10,2013-07-27 06:08:00,
2013-07-27 01:23:00,52.2,49.0,30.03,NNE,13,0.0,0.0,90,0.00,,,0.00,weatherlink.com 1.10,2013-07-27 06:23:00,
2013-07-27 01:38:00,51.8,49.0,30.03,NE,39,0.0,0.0,90,0.00,,,0.00,weatherlink.com 1.10,2013-07-27 06:38:00,
2013-07-27 01:53:00,51.5,49.0,30.03,NNE,20,0.0,0.0,91,0.00,,,0.00,weatherlink.com 1.10,2013-07-27 06:53:00,
2013-07-27 02:09:00,51.0,49.0,30.03,NNE,20,0.0,0.0,91,0.00,,,0.00,weatherlink.com 1.10,2013-07-27 07:09:00,
2013-07-27 02:24:00,50.9,49.0,30.03,East,82,0.0,0.0,92,0.00,,,0.00,weatherlink.com 1.10,2013-07-27 07:24:00,
2013-07-27 02:39:00,50.6,48.0,30.04,WSW,255,0.0,0.0,91,0.00,,,0.00,weatherlink.com 1.10,2013-07-27 07:39:00,
2013-07-27 02:54:00,50.4,48.0,30.03,West,276,0.0,1.0,91,0.00,,,0.00,weatherlink.com 1.10,2013-07-27 07:54:00,
2013-07-27 03:24:00,49.5,47.0,30.03,West,263,0.0,0.0,92,0.00,,,0.00,weatherlink.com 1.10,2013-07-27 08:24:00,
2013-07-27 03:39:00,49.2,47.0,30.03,WNW,294,0.0,1.0,93,0.00,,,0.00,weatherlink.com 1.10,2013-07-27 08:39:00,
2013-07-27 03:54:00,49.2,47.0,30.03,SE,127,0.0,2.0,93,0.00,,,0.00,weatherlink.com 1.10,2013-07-27 08:54:00,
2013-07-27 04:09:00,49.1,47.0,30.03,NNW,335,0.0,2.0,93,0.00,,,0.00,weatherlink.com 1.10,2013-07-27 09:09:00,
2013-07-27 04:24:00,49.1,47.0,30.03,NNE,21,0.0,0.0,93,0.00,,,0.00,weatherlink.com 1.10,2013-07-27 09:24:00,
2013-07-27 04:39:00,48.8,47.0,30.04,NE,52,0.0,0.0,93,0.00,,,0.00,weatherlink.com 1.10,2013-07-27 09:39:00,
2013-07-27 04:54:00,48.5,47.0,30.04,North,4,0.0,0.0,93,0.00,,,0.00,weatherlink.com 1.10,2013-07-27 09:54:00,
2013-07-27 05:09:00,48.2,46.0,30.04,NE,37,0.0,1.0,93,0.00,,,0.00,weatherlink.com 1.10,2013-07-27 10:09:00,
2013-07-27 05:24:00,47.9,46.0,30.05,NNE,32,0.0,5.0,93,0.00,,,0.00,weatherlink.com 1.10,2013-07-27 10:24:00,
2013-07-27 05:39:00,47.8,46.0,30.05,North,4,0.0,2.0,94,0.00,,,0.00,weatherlink.com 1.10,2013-07-27 10:39:00,
2013-07-27 05:54:00,47.6,46.0,30.05,NNE,20,0.0,1.0,93,0.00,,,0.00,weatherlink.com 1.10,2013-07-27 10:54:00,
2013-07-27 06:09:00,47.1,45.0,30.05,NNE,20,0.0,0.0,93,0.00,,,0.00,weatherlink.com 1.10,2013-07-27 11:09:00,
2013-07-27 06:24:00,46.9,45.0,30.05,NNW,327,0.0,1.0,94,0.00,,,0.00,weatherlink.com 1.10,2013-07-27 11:24:00,
2013-07-27 06:39:00,46.9,45.0,30.05,NNW,333,0.0,5.0,94,0.00,,,0.00,weatherlink.com 1.10,2013-07-27 11:39:00,
2013-07-27 06:54:00,47.4,46.0,30.05,NNW,338,0.0,0.0,94,0.00,,,0.00,weatherlink.com 1.10,2013-07-27 11:54:00,
2013-07-27 07:09:00,48.1,47.0,30.05,NNE,28,0.0,1.0,94,0.00,,,0.00,weatherlink.com 1.10,2013-07-27 12:09:00,
2013-07-27 07:24:00,49.1,47.0,30.05,NNW,333,0.0,3.0,93,0.00,,,0.00,weatherlink.com 1.10,2013-07-27 12:24:00,
2013-07-27 07:39:00,50.3,48.0,30.06,North,352,0.0,5.0,92,0.00,,,0.00,weatherlink.com 1.10,2013-07-27 12:39:00,
2013-07-27 07:54:00,51.2,49.0,30.06,West,277,2.0,4.0,91,0.00,,,0.00,weatherlink.com 1.10,2013-07-27 12:54:00,
2013-07-27 08:09:00,51.9,49.0,30.05,NNE,16,1.0,9.0,88,0.00,,,0.00,weatherlink.com 1.10,2013-07-27 13:09:00,
2013-07-27 08:24:00,52.9,49.0,30.06,NNE,23,0.0,8.0,87,0.00,,,0.00,weatherlink.com 1.10,2013-07-27 13:24:00,
2013-07-27 08:39:00,53.4,49.0,30.06,NW,323,2.0,6.0,84,0.00,,,0.00,weatherlink.com 1.10,2013-07-27 13:39:00,
2013-07-27 08:54:00,54.4,49.0,30.06,NNE,15,0.0,9.0,81,0.00,,,0.00,weatherlink.com 1.10,2013-07-27 13:54:00,
2013-07-27 09:09:00,54.9,47.0,30.06,East,83,3.0,7.0,76,0.00,,,0.00,weatherlink.com 1.10,2013-07-27 14:09:00,
2013-07-27 09:24:00,56.0,47.0,30.06,NNW,328,2.0,13.0,73,0.00,,,0.00,weatherlink.com 1.10,2013-07-27 14:24:00,
2013-07-27 09:39:00,56.8,47.0,30.06,NE,53,1.0,7.0,70,0.00,,,0.00,weatherlink.com 1.10,2013-07-27 14:39:00,
2013-07-27 09:54:00,57.5,45.0,30.06,West,281,1.0,8.0,64,0.00,,,0.00,weatherlink.com 1.10,2013-07-27 14:54:00,
2013-07-27 10:09:00,56.4,45.0,30.06,ENE,71,0.0,7.0,66,0.00,,,0.00,weatherlink.com 1.10,2013-07-27 15:09:00,
2013-07-27 10:24:00,56.7,45.0,30.05,SW,229,1.0,11.0,66,0.00,,,0.00,weatherlink.com 1.10,2013-07-27 15:24:00,
2013-07-27 10:39:00,57.5,46.0,30.05,NE,44,2.0,11.0,65,0.00,,,0.00,weatherlink.com 1.10,2013-07-27 15:39:00,
2013-07-27 10:54:00,58.8,46.0,30.04,WNW,296,2.0,9.0,62,0.00,,,0.00,weatherlink.com 1.10,2013-07-27 15:54:00,
2013-07-27 11:09:00,58.1,45.0,30.05,NW,324,2.0,11.0,61,0.00,,,0.00,weatherlink.com 1.10,2013-07-27 16:09:00,
2013-07-27 11:24:00,59.2,45.0,30.05,North,4,4.0,8.0,60,0.00,,,0.00,weatherlink.com 1.10,2013-07-27 16:24:00,
2013-07-27 11:39:00,59.4,45.0,30.04,West,280,1.0,6.0,59,0.00,,,0.00,weatherlink.com 1.10,2013-07-27 16:39:00,
2013-07-27 11:55:00,59.9,44.0,30.04,NNE,18,4.0,8.0,57,0.00,,,0.00,weatherlink.com 1.10,2013-07-27 16:55:00,
2013-07-27 12:10:00,60.3,44.0,30.03,West,276,3.0,9.0,55,0.00,,,0.00,weatherlink.com 1.10,2013-07-27 17:10:00,
2013-07-27 12:25:00,61.9,44.0,30.03,NNW,338,1.0,8.0,53,0.00,,,0.00,weatherlink.com 1.10,2013-07-27 17:25:00,
2013-07-27 12:40:00,63.6,44.0,30.03,WNW,301,1.0,9.0,49,0.00,,,0.00,weatherlink.com 1.10,2013-07-27 17:40:00,
2013-07-27 12:55:00,63.5,45.0,30.02,NNW,344,2.0,7.0,51,0.00,,,0.00,weatherlink.com 1.10,2013-07-27 17:55:00,
2013-07-27 13:10:00,64.1,44.0,30.02,ENE,59,1.0,8.0,48,0.00,,,0.00,weatherlink.com 1.10,2013-07-27 18:10:00,
2013-07-27 13:25:00,64.3,43.0,30.02,West,276,6.0,14.0,47,0.00,,,0.00,weatherlink.com 1.10,2013-07-27 18:25:00,
2013-07-27 13:40:00,65.3,44.0,30.02,NNE,18,1.0,7.0,47,0.00,,,0.00,weatherlink.com 1.10,2013-07-27 18:40:00,
2013-07-27 13:55:00,65.5,45.0,30.02,NW,312,2.0,12.0,47,0.00,,,0.00,weatherlink.com 1.10,2013-07-27 18:55:00,
2013-07-27 14:10:00,65.2,45.0,30.01,NNW,338,3.0,10.0,49,0.00,,,0.00,weatherlink.com 1.10,2013-07-27 19:10:00,
2013-07-27 14:25:00,64.7,45.0,30.01,ENE,62,3.0,10.0,49,0.00,,,0.00,weatherlink.com 1.10,2013-07-27 19:25:00,
2013-07-27 14:40:00,66.1,45.0,30.00,NNW,329,3.0,9.0,47,0.00,,,0.00,weatherlink.com 1.10,2013-07-27 19:40:00,
2013-07-27 14:55:00,65.6,44.0,30.00,West,281,1.0,10.0,46,0.00,,,0.00,weatherlink.com 1.10,2013-07-27 19:55:00,
2013-07-27 15:10:00,66.2,43.0,29.99,West,276,3.0,9.0,44,0.00,,,0.00,weatherlink.com 1.10,2013-07-27 20:10:00,
2013-07-27 15:25:00,65.9,44.0,29.99,ENE,66,1.0,10.0,45,0.00,,,0.00,weatherlink.com 1.10,2013-07-27 20:25:00,
2013-07-27 15:40:00,65.5,44.0,29.99,West,260,2.0,13.0,46,0.00,,,0.00,weatherlink.com 1.10,2013-07-27 20:40:00,
2013-07-27 15:55:00,66.5,45.0,29.98,NW,316,2.0,7.0,46,0.00,,,0.00,weatherlink.com 1.10,2013-07-27 20:55:00,
2013-07-27 16:10:00,67.2,45.0,29.98,WNW,293,7.0,7.0,45,0.00,,,0.00,weatherlink.com 1.10,2013-07-27 21:10:00,
2013-07-27 16:25:00,68.0,44.0,29.98,NE,49,3.0,8.0,42,0.00,,,0.00,weatherlink.com 1.10,2013-07-27 21:25:00,
2013-07-27 16:40:00,68.2,43.0,29.98,ENE,67,6.0,7.0,41,0.00,,,0.00,weatherlink.com 1.10,2013-07-27 21:40:00,
2013-07-27 16:55:00,66.8,45.0,29.97,NW,308,4.0,9.0,45,0.00,,,0.00,weatherlink.com 1.10,2013-07-27 21:55:00,
2013-07-27 17:10:00,67.4,45.0,29.97,West,261,1.0,9.0,44,0.00,,,0.00,weatherlink.com 1.10,2013-07-27 22:10:00,
2013-07-27 17:25:00,67.5,45.0,29.97,West,271,1.0,6.0,45,0.00,,,0.00,weatherlink.com 1.10,2013-07-27 22:25:00,
2013-07-27 17:40:00,67.3,45.0,29.96,NW,326,3.0,7.0,44,0.00,,,0.00,weatherlink.com 1.10,2013-07-27 22:40:00,
2013-07-27 17:55:00,67.4,45.0,29.96,North,359,2.0,9.0,44,0.00,,,0.00,weatherlink.com 1.10,2013-07-27 22:55:00,
2013-07-27 18:10:00,67.1,45.0,29.96,West,281,1.0,8.0,45,0.00,,,0.00,weatherlink.com 1.10,2013-07-27 23:10:00,
2013-07-27 18:25:00,68.9,46.0,29.95,WSW,254,0.0,6.0,44,0.00,,,0.00,weatherlink.com 1.10,2013-07-27 23:25:00,
2013-07-27 18:40:00,68.6,45.0,29.95,NNW,335,4.0,9.0,43,0.00,,,0.00,weatherlink.com 1.10,2013-07-27 23:40:00,
2013-07-27 18:55:00,67.8,45.0,29.95,West,276,4.0,9.0,44,0.00,,,0.00,weatherlink.com 1.10,2013-07-27 23:55:00,
2013-07-27 19:10:00,66.8,45.0,29.95,West,275,1.0,6.0,46,0.00,,,0.00,weatherlink.com 1.10,2013-07-28 00:10:00,
2013-07-27 19:25:00,66.9,45.0,29.95,WNW,293,2.0,6.0,46,0.00,,,0.00,weatherlink.com 1.10,2013-07-28 00:25:00,
2013-07-27 19:40:00,65.7,45.0,29.95,North,352,1.0,6.0,48,0.00,,,0.00,weatherlink.com 1.10,2013-07-28 00:40:00,
2013-07-27 19:55:00,64.4,46.0,29.95,West,262,0.0,3.0,52,0.00,,,0.00,weatherlink.com 1.10,2013-07-28 00:55:00,
2013-07-27 20:10:00,63.8,47.0,29.95,WNW,301,0.0,3.0,55,0.00,,,0.00,weatherlink.com 1.10,2013-07-28 01:10:00,
2013-07-27 20:25:00,63.4,47.0,29.95,West,280,0.0,2.0,56,0.00,,,0.00,weatherlink.com 1.10,2013-07-28 01:25:00,
2013-07-27 20:40:00,63.2,48.0,29.95,NNE,31,2.0,2.0,57,0.00,,,0.00,weatherlink.com 1.10,2013-07-28 01:40:00,
2013-07-27 20:55:00,62.9,48.0,29.95,West,260,0.0,1.0,58,0.00,,,0.00,weatherlink.com 1.10,2013-07-28 01:55:00,
2013-07-27 21:10:00,62.5,48.0,29.95,West,276,0.0,0.0,60,0.00,,,0.00,weatherlink.com 1.10,2013-07-28 02:10:00,
2013-07-27 21:25:00,62.1,48.0,29.95,WSW,255,0.0,1.0,60,0.00,,,0.00,weatherlink.com 1.10,2013-07-28 02:25:00,
2013-07-27 21:40:00,61.9,48.0,29.95,West,269,0.0,1.0,60,0.00,,,0.00,weatherlink.com 1.10,2013-07-28 02:40:00,
2013-07-27 21:55:00,61.4,48.0,29.95,WNW,282,1.0,3.0,61,0.00,,,0.00,weatherlink.com 1.10,2013-07-28 02:55:00,
2013-07-27 22:10:00,60.9,48.0,29.95,West,278,0.0,1.0,62,0.00,,,0.00,weatherlink.com 1.10,2013-07-28 03:10:00,
2013-07-27 22:25:00,60.5,47.0,29.95,WSW,252,0.0,2.0,62,0.00,,,0.00,weatherlink.com 1.10,2013-07-28 03:25:00,
2013-07-27 22:41:00,59.7,48.0,29.96,West,261,0.0,1.0,65,0.00,,,0.00,weatherlink.com 1.10,2013-07-28 03:41:00,
2013-07-27 22:56:00,59.4,48.0,29.96,West,281,2.0,3.0,65,0.00,,,0.00,weatherlink.com 1.10,2013-07-28 03:56:00,
2013-07-27 23:11:00,59.4,48.0,29.95,West,272,0.0,4.0,65,0.00,,,0.00,weatherlink.com 1.10,2013-07-28 04:11:00,
2013-07-27 23:26:00,59.0,47.0,29.95,West,278,1.0,4.0,65,0.00,,,0.00,weatherlink.com 1.10,2013-07-28 04:26:00,
2013-07-27 23:41:00,58.4,47.0,29.95,West,277,1.0,3.0,66,0.00,,,0.00,weatherlink.com 1.10,2013-07-28 04:41:00,
2013-07-27 23:56:00,58.0,47.0,29.95,WSW,238,0.0,4.0,67,0.00,,,0.00,weatherlink.com 1.10,2013-07-28 04:56:00,